createdAt,value
2022-12-31T00:00:33.531Z,99670.38
2022-12-31T00:03:01.472Z,99674.69
2022-12-31T00:05:32.908Z,99692.00
2022-12-31T00:08:01.532Z,99667.75
2022-12-31T00:10:29.328Z,99701.50
2022-12-31T00:12:57.082Z,99679.00
2022-12-31T00:15:24.665Z,99682.47
2022-12-31T00:17:52.239Z,99690.28
2022-12-31T00:20:19.930Z,99679.88
2022-12-31T00:22:48.814Z,99679.00
2022-12-31T00:25:16.484Z,99681.63
2022-12-31T00:27:44.275Z,99697.19
2022-12-31T00:30:13.057Z,99670.38
2022-12-31T00:32:40.618Z,99704.13
2022-12-31T00:35:08.993Z,99692.00
2022-12-31T00:37:36.605Z,99719.66
2022-12-31T00:40:06.405Z,99717.94
2022-12-31T00:42:34.020Z,99733.50
2022-12-31T00:45:01.599Z,99741.28
2022-12-31T00:47:29.152Z,99719.63
2022-12-31T00:49:56.720Z,99738.69
2022-12-31T00:52:24.288Z,99733.47
2022-12-31T00:54:51.805Z,99742.13
2022-12-31T00:57:20.829Z,99726.56
2022-12-31T00:59:48.426Z,99742.09
2022-12-31T01:02:16.149Z,99741.25
2022-12-31T01:04:44.487Z,99742.13
2022-12-31T01:07:12.095Z,99743.91
2022-12-31T01:09:39.665Z,99756.03
2022-12-31T01:12:07.765Z,99799.31
2022-12-31T01:14:36.924Z,99781.97
2022-12-31T01:17:04.503Z,99778.53
2022-12-31T01:19:32.060Z,99778.47
2022-12-31T01:21:59.743Z,99788.84
2022-12-31T01:24:27.334Z,99783.66
2022-12-31T01:26:57.645Z,99755.97
2022-12-31T01:29:26.714Z,99777.63
2022-12-31T01:31:55.642Z,99771.59
2022-12-31T01:34:23.331Z,99747.38
2022-12-31T01:36:50.906Z,99749.09
2022-12-31T01:39:18.489Z,99767.25
2022-12-31T01:41:48.218Z,99755.16
2022-12-31T01:44:51.736Z,99766.41
2022-12-31T01:47:27.732Z,99771.63
2022-12-31T01:50:00.147Z,99762.94
2022-12-31T01:52:31.450Z,99759.47
2022-12-31T01:55:04.181Z,99763.78
2022-12-31T01:57:32.693Z,99766.38
2022-12-31T02:00:02.577Z,99758.59
2022-12-31T02:02:33.977Z,99779.38
2022-12-31T02:05:06.683Z,99777.63
2022-12-31T02:07:34.357Z,99776.75
2022-12-31T02:10:02.596Z,99781.06
2022-12-31T02:12:30.283Z,99790.63
2022-12-31T02:14:57.919Z,99788.84
2022-12-31T02:17:33.535Z,99796.66
2022-12-31T02:20:27.131Z,99802.69
2022-12-31T02:23:39.629Z,99792.31
2022-12-31T02:26:47.057Z,99771.53
2022-12-31T02:29:36.721Z,99794.03
2022-12-31T02:32:09.009Z,99777.56
2022-12-31T02:34:42.155Z,99787.13
2022-12-31T02:37:13.167Z,99805.31
2022-12-31T02:39:41.849Z,99792.28
2022-12-31T02:42:11.032Z,99795.75
2022-12-31T02:44:40.373Z,99839.94
2022-12-31T02:47:23.705Z,99785.34
2022-12-31T02:50:04.477Z,99780.16
2022-12-31T02:52:45.672Z,99783.63
2022-12-31T02:55:22.451Z,99783.63
2022-12-31T02:57:56.527Z,99782.75
2022-12-31T03:00:41.949Z,99780.16
2022-12-31T03:03:11.834Z,99817.38
2022-12-31T03:05:42.874Z,99794.84
2022-12-31T03:08:10.771Z,99783.56
2022-12-31T03:10:38.294Z,99782.72
2022-12-31T03:13:04.951Z,99797.44
2022-12-31T03:15:35.112Z,99780.09
2022-12-31T03:18:10.621Z,99767.94
2022-12-31T03:20:59.225Z,99793.91
2022-12-31T03:23:29.243Z,99779.19
2022-12-31T03:25:57.318Z,99773.06
2022-12-31T03:28:26.582Z,99788.63
2022-12-31T03:30:56.699Z,99803.34
2022-12-31T03:33:24.989Z,99802.44
2022-12-31T03:35:54.121Z,99774.72
2022-12-31T03:38:21.966Z,99793.78
2022-12-31T03:40:51.518Z,99807.66
2022-12-31T03:43:20.118Z,99800.69
2022-12-31T03:45:49.450Z,99798.97
2022-12-31T03:48:17.063Z,99802.41
2022-12-31T03:50:44.681Z,99809.31
2022-12-31T03:53:13.571Z,99797.16
2022-12-31T03:55:41.118Z,99797.16
2022-12-31T03:58:08.819Z,99814.53
2022-12-31T04:00:36.695Z,99814.53
2022-12-31T04:03:04.503Z,99792.84
2022-12-31T04:05:32.287Z,99804.97
2022-12-31T04:07:59.845Z,99812.81
2022-12-31T04:10:28.761Z,99797.19
2022-12-31T04:12:56.320Z,99804.09
2022-12-31T04:15:23.835Z,99815.41
2022-12-31T04:17:51.353Z,99819.75
2022-12-31T04:20:20.608Z,99798.06
2022-12-31T04:22:48.141Z,99782.44
2022-12-31T04:25:15.682Z,99772.91
2022-12-31T04:27:46.250Z,99793.75
2022-12-31T04:30:14.593Z,99792.84
2022-12-31T04:32:42.236Z,99793.72
2022-12-31T04:35:11.402Z,99794.56
2022-12-31T04:37:38.967Z,99792.00
2022-12-31T04:40:09.058Z,99798.91
2022-12-31T04:42:37.147Z,99783.31
2022-12-31T04:45:07.231Z,99816.13
2022-12-31T04:47:34.873Z,99810.91
2022-12-31T04:50:02.489Z,99795.28
2022-12-31T04:52:30.035Z,99816.97
2022-12-31T04:54:57.619Z,99837.78
2022-12-31T04:57:25.197Z,99876.84
2022-12-31T04:59:52.968Z,99830.84
2022-12-31T05:02:22.143Z,99831.72
2022-12-31T05:04:49.901Z,99832.59
2022-12-31T05:07:18.613Z,99832.66
2022-12-31T05:09:46.264Z,99824.78
2022-12-31T05:12:13.988Z,99833.50
2022-12-31T05:14:41.605Z,99831.78
2022-12-31T05:17:09.202Z,99839.63
2022-12-31T05:19:38.136Z,99840.50
2022-12-31T05:22:23.308Z,99825.75
2022-12-31T05:24:52.313Z,99856.94
2022-12-31T05:27:19.919Z,99852.59
2022-12-31T05:29:47.762Z,99840.44
2022-12-31T05:32:15.355Z,99853.44
2022-12-31T05:34:44.507Z,99857.78
2022-12-31T05:37:12.638Z,99857.81
2022-12-31T05:39:40.216Z,99861.28
2022-12-31T05:42:07.792Z,99900.31
2022-12-31T05:44:35.352Z,99856.00
2022-12-31T05:47:02.875Z,99875.16
2022-12-31T05:49:30.426Z,99869.94
2022-12-31T05:51:59.297Z,99869.94
2022-12-31T05:54:27.555Z,99872.50
2022-12-31T05:56:55.162Z,99881.19
2022-12-31T05:59:22.726Z,99880.34
2022-12-31T06:01:50.351Z,99869.09
2022-12-31T06:04:18.215Z,99868.22
2022-12-31T06:06:45.865Z,99875.16
2022-12-31T06:09:15.828Z,99916.81
2022-12-31T06:11:43.414Z,99890.81
2022-12-31T06:14:11.037Z,99882.16
2022-12-31T06:16:38.628Z,99891.69
2022-12-31T06:19:06.224Z,99885.63
2022-12-31T06:21:34.042Z,99895.25
2022-12-31T06:24:01.626Z,99883.97
2022-12-31T06:26:30.568Z,99880.53
2022-12-31T06:28:58.104Z,99882.28
2022-12-31T06:31:25.760Z,99889.19
2022-12-31T06:33:53.383Z,99885.75
2022-12-31T06:36:22.247Z,99887.50
2022-12-31T06:38:51.395Z,99906.53
2022-12-31T06:41:19.394Z,99896.13
2022-12-31T06:43:48.895Z,99893.56
2022-12-31T06:46:18.567Z,99897.91
2022-12-31T06:48:46.549Z,99891.81
2022-12-31T06:51:17.740Z,99903.97
2022-12-31T06:53:46.766Z,99903.13
2022-12-31T06:56:16.544Z,99894.47
2022-12-31T06:58:45.806Z,99887.53
2022-12-31T07:01:37.811Z,99884.91
2022-12-31T07:04:26.809Z,99881.47
2022-12-31T07:07:00.527Z,99899.66
2022-12-31T07:09:34.832Z,99890.13
2022-12-31T07:12:07.579Z,99889.25
2022-12-31T07:14:38.284Z,99897.94
2022-12-31T07:17:22.902Z,99898.75
2022-12-31T07:19:59.191Z,99895.28
2022-12-31T07:22:27.291Z,99918.63
2022-12-31T07:24:55.362Z,99898.66
2022-12-31T07:27:50.691Z,99904.72
2022-12-31T07:30:21.601Z,99921.19
2022-12-31T07:33:08.071Z,99916.84
2022-12-31T07:35:42.826Z,99922.06
2022-12-31T07:38:21.668Z,99922.94
2022-12-31T07:40:58.244Z,99933.34
2022-12-31T07:43:33.050Z,99935.06
2022-12-31T07:46:08.042Z,99946.34
2022-12-31T07:48:37.435Z,99946.31
2022-12-31T07:51:06.642Z,99948.03
2022-12-31T07:53:34.757Z,99944.56
2022-12-31T07:56:04.249Z,99949.78
2022-12-31T07:58:45.814Z,99952.34
2022-12-31T08:01:16.926Z,99951.47
2022-12-31T08:03:59.444Z,99946.25
2022-12-31T08:06:37.689Z,99960.13
2022-12-31T08:09:12.882Z,99954.94
2022-12-31T08:11:50.488Z,99961.84
2022-12-31T08:14:20.611Z,99965.34
2022-12-31T08:16:48.906Z,99980.94
2022-12-31T08:19:24.729Z,99976.59
2022-12-31T08:22:09.885Z,99970.50
2022-12-31T08:24:50.469Z,99986.09
2022-12-31T08:27:25.011Z,99986.97
2022-12-31T08:30:02.625Z,99993.03
2022-12-31T08:32:37.654Z,99994.75
2022-12-31T08:35:27.813Z,100007.75
2022-12-31T08:38:02.835Z,99993.84
2022-12-31T08:40:53.037Z,100005.13
2022-12-31T08:43:34.308Z,100001.66
2022-12-31T08:46:02.128Z,99998.16
2022-12-31T08:48:37.783Z,100022.47
2022-12-31T08:51:08.048Z,100008.56
2022-12-31T08:53:36.272Z,100012.91
2022-12-31T08:56:11.245Z,100011.16
2022-12-31T08:58:47.574Z,100012.88
2022-12-31T09:01:18.965Z,100019.78
2022-12-31T09:03:59.964Z,100021.53
2022-12-31T09:06:34.769Z,100015.41
2022-12-31T09:09:11.424Z,100015.41
2022-12-31T09:11:51.188Z,100027.53
2022-12-31T09:14:28.700Z,100024.94
2022-12-31T09:17:04.190Z,100015.41
2022-12-31T09:19:31.757Z,100013.69
2022-12-31T09:22:01.147Z,100015.41
2022-12-31T09:24:29.293Z,100015.41
2022-12-31T09:27:05.569Z,100004.97
2022-12-31T09:29:45.781Z,100008.47
2022-12-31T09:32:23.340Z,100010.19
2022-12-31T09:34:55.944Z,100023.13
2022-12-31T09:37:36.946Z,100020.47
2022-12-31T09:40:30.682Z,100034.31
2022-12-31T09:43:23.081Z,100029.09
2022-12-31T09:46:10.453Z,100037.81
2022-12-31T09:48:55.830Z,100039.53
2022-12-31T09:51:30.691Z,100036.06
2022-12-31T09:54:21.667Z,100031.72
2022-12-31T09:57:00.520Z,100041.25
2022-12-31T09:59:36.262Z,100035.97
2022-12-31T10:02:20.882Z,100029.81
2022-12-31T10:04:56.788Z,100033.22
2022-12-31T10:07:52.056Z,100035.63
2022-12-31T10:10:26.977Z,100037.31
2022-12-31T10:13:22.861Z,100027.75
2022-12-31T10:16:23.935Z,100029.38
2022-12-31T10:19:14.109Z,100038.97
2022-12-31T10:21:54.883Z,100045.13
2022-12-31T10:24:46.362Z,100013.84
2022-12-31T10:27:37.963Z,100018.94
2022-12-31T10:30:16.146Z,100011.88
2022-12-31T10:32:45.890Z,100009.03
2022-12-31T10:35:28.867Z,100016.69
2022-12-31T10:38:13.486Z,100014.03
2022-12-31T10:41:04.424Z,100003.31
2022-12-31T10:44:13.375Z,100009.84
2022-12-31T10:46:59.656Z,100030.38
2022-12-31T10:49:51.516Z,100022.34
2022-12-31T10:53:07.297Z,100020.22
2022-12-31T10:56:10.692Z,100007.00
2022-12-31T10:59:04.764Z,100006.50
2022-12-31T11:01:43.038Z,100058.16
2022-12-31T11:04:38.277Z,100013.75
2022-12-31T11:07:39.087Z,100010.97
2022-12-31T11:10:39.443Z,100015.09
2022-12-31T11:13:39.791Z,100021.06
2022-12-31T11:16:28.667Z,100006.94
2022-12-31T11:19:02.901Z,100014.56
2022-12-31T11:21:47.082Z,100019.84
2022-12-31T11:24:28.648Z,99999.78
2022-12-31T11:27:15.223Z,100015.03
2022-12-31T11:30:04.432Z,100000.44
2022-12-31T11:32:50.455Z,99994.97
2022-12-31T11:35:31.571Z,99997.13
2022-12-31T11:38:06.432Z,99988.81
2022-12-31T11:40:57.472Z,100003.25
2022-12-31T11:43:34.465Z,99985.84
2022-12-31T11:46:22.473Z,99985.72
2022-12-31T11:49:09.065Z,99974.88
2022-12-31T11:51:50.767Z,99982.09
2022-12-31T11:54:37.395Z,99987.56
2022-12-31T11:57:17.206Z,99970.09
2022-12-31T11:59:44.894Z,99974.94
2022-12-31T12:02:25.427Z,99971.25
2022-12-31T12:04:58.675Z,99973.81
2022-12-31T12:07:27.047Z,99966.78
2022-12-31T12:09:56.300Z,99963.94
2022-12-31T12:12:24.048Z,99961.69
2022-12-31T12:14:55.256Z,99952.16
2022-12-31T12:17:32.021Z,99958.19
2022-12-31T12:20:04.198Z,99954.38
2022-12-31T12:22:32.793Z,99947.09
2022-12-31T12:25:06.538Z,99950.13
2022-12-31T12:27:36.200Z,99947.22
2022-12-31T12:30:11.977Z,99961.34
2022-12-31T12:32:39.590Z,99956.97
2022-12-31T12:35:27.856Z,99951.78
2022-12-31T12:38:03.924Z,99951.72
2022-12-31T12:40:34.328Z,99951.38
2022-12-31T12:43:03.603Z,99951.44
2022-12-31T12:45:41.438Z,99953.09
2022-12-31T12:48:18.228Z,99947.19
2022-12-31T12:50:49.574Z,99955.34
2022-12-31T12:53:31.496Z,99952.56
2022-12-31T12:56:10.022Z,99943.53
2022-12-31T12:58:49.352Z,99946.31
2022-12-31T13:01:28.054Z,99940.03
2022-12-31T13:04:36.075Z,99941.06
2022-12-31T13:07:17.687Z,99925.91
2022-12-31T13:09:59.295Z,99924.00
2022-12-31T13:12:56.773Z,99923.78
2022-12-31T13:15:28.304Z,99920.25
2022-12-31T13:18:06.004Z,99921.75
2022-12-31T13:20:40.121Z,99917.44
2022-12-31T13:23:20.191Z,99919.09
2022-12-31T13:26:02.136Z,99909.53
2022-12-31T13:28:31.573Z,99921.34
2022-12-31T13:31:06.758Z,99913.63
2022-12-31T13:33:40.830Z,99912.63
2022-12-31T13:36:13.455Z,99908.97
2022-12-31T13:38:46.854Z,99901.72
2022-12-31T13:41:18.317Z,99908.19
2022-12-31T13:43:52.575Z,99894.38
2022-12-31T13:46:26.931Z,99901.06
2022-12-31T13:48:58.050Z,99887.03
2022-12-31T13:51:35.139Z,99906.03
2022-12-31T13:54:11.517Z,99894.03
2022-12-31T13:56:40.346Z,99902.66
2022-12-31T13:59:16.445Z,99902.69
2022-12-31T14:01:49.483Z,99901.94
2022-12-31T14:04:19.744Z,99901.25
2022-12-31T14:06:54.118Z,99903.88
2022-12-31T14:09:24.918Z,99902.88
2022-12-31T14:12:14.058Z,99904.84
2022-12-31T14:14:49.927Z,99909.09
2022-12-31T14:17:24.204Z,99900.53
2022-12-31T14:20:00.607Z,99912.88
2022-12-31T14:22:37.113Z,99906.00
2022-12-31T14:25:12.132Z,99902.66
2022-12-31T14:27:44.265Z,99900.38
2022-12-31T14:30:17.274Z,99911.03
2022-12-31T14:33:02.915Z,99916.47
2022-12-31T14:35:46.320Z,99917.50
2022-12-31T14:38:25.887Z,99933.25
2022-12-31T14:41:06.817Z,99922.97
2022-12-31T14:43:45.099Z,99934.34
2022-12-31T14:46:25.447Z,99926.59
2022-12-31T14:49:03.052Z,99921.44
2022-12-31T14:51:31.256Z,99923.34
2022-12-31T14:53:59.567Z,99928.72
2022-12-31T14:56:33.098Z,99928.84
2022-12-31T14:59:02.905Z,99930.72
2022-12-31T15:01:31.084Z,99923.84
2022-12-31T15:03:59.035Z,99934.38
2022-12-31T15:06:39.815Z,99917.03
2022-12-31T15:09:18.118Z,99927.59
2022-12-31T15:12:05.535Z,99919.81
2022-12-31T15:15:04.578Z,99912.13
2022-12-31T15:17:45.476Z,99920.03
2022-12-31T15:20:32.916Z,99921.00
2022-12-31T15:23:00.759Z,99915.81
2022-12-31T15:25:36.770Z,99912.38
2022-12-31T15:28:28.518Z,99917.66
2022-12-31T15:31:04.522Z,99916.03
2022-12-31T15:33:37.515Z,99915.25
2022-12-31T15:36:17.311Z,99928.34
2022-12-31T15:38:46.021Z,99917.97
2022-12-31T15:41:16.639Z,99924.97
2022-12-31T15:43:50.338Z,99923.31
2022-12-31T15:46:20.783Z,99928.63
2022-12-31T15:48:55.479Z,99930.38
2022-12-31T15:51:30.411Z,99925.19
2022-12-31T15:54:00.645Z,99934.78
2022-12-31T15:56:35.142Z,99933.94
2022-12-31T15:59:08.898Z,99929.72
2022-12-31T16:01:37.812Z,99934.91
2022-12-31T16:04:08.766Z,99931.47
2022-12-31T16:06:38.412Z,99947.13
2022-12-31T16:09:09.558Z,99937.63
2022-12-31T16:11:40.471Z,99949.78
2022-12-31T16:14:19.298Z,99955.97
2022-12-31T16:16:54.502Z,99955.97
2022-12-31T16:19:31.984Z,99953.38
2022-12-31T16:22:03.947Z,99956.00
2022-12-31T16:24:35.227Z,99967.25
2022-12-31T16:27:07.990Z,99965.56
2022-12-31T16:29:38.375Z,99971.63
2022-12-31T16:32:12.950Z,99977.69
2022-12-31T16:34:40.547Z,99963.81
2022-12-31T16:37:16.097Z,99974.19
2022-12-31T16:40:09.416Z,99967.22
2022-12-31T16:42:44.291Z,99968.94
2022-12-31T16:45:28.813Z,99968.03
2022-12-31T16:47:56.676Z,99971.44
2022-12-31T16:50:26.033Z,99973.19
2022-12-31T16:53:00.235Z,99984.41
2022-12-31T16:55:30.821Z,99984.38
2022-12-31T16:58:02.555Z,99982.63
2022-12-31T17:00:33.237Z,99984.28
2022-12-31T17:03:08.833Z,99986.84
2022-12-31T17:05:55.434Z,99987.75
2022-12-31T17:08:25.691Z,99982.56
2022-12-31T17:10:53.812Z,99979.94
2022-12-31T17:13:30.587Z,99985.94
2022-12-31T17:16:00.863Z,99991.03
2022-12-31T17:18:36.002Z,99988.38
2022-12-31T17:21:09.151Z,99990.06
2022-12-31T17:23:39.546Z,99987.44
2022-12-31T17:26:12.225Z,99980.47
2022-12-31T17:28:44.435Z,99980.47
2022-12-31T17:31:35.031Z,99978.69
2022-12-31T17:34:24.176Z,99982.13
2022-12-31T17:37:03.413Z,99977.72
2022-12-31T17:39:44.279Z,99982.84
2022-12-31T17:42:13.700Z,99979.31
2022-12-31T17:44:44.031Z,99977.50
2022-12-31T17:47:14.805Z,99980.00
2022-12-31T17:49:44.838Z,99985.94
2022-12-31T17:52:14.367Z,99986.69
2022-12-31T17:54:42.312Z,99990.91
2022-12-31T17:57:22.726Z,99994.25
2022-12-31T17:59:50.316Z,99982.09
2022-12-31T18:02:19.593Z,99988.06
2022-12-31T18:04:47.238Z,99986.28
2022-12-31T18:07:14.749Z,99984.44
2022-12-31T18:09:42.356Z,99992.16
2022-12-31T18:12:09.914Z,99993.84
2022-12-31T18:14:37.517Z,99997.25
2022-12-31T18:17:06.934Z,100002.34
2022-12-31T18:20:03.676Z,99998.84
2022-12-31T18:22:23.343Z,100001.41
2022-12-31T18:24:54.044Z,99993.59
2022-12-31T18:27:21.655Z,100009.91
2022-12-31T18:29:49.326Z,100009.03
2022-12-31T18:32:23.770Z,100013.25
2022-12-31T18:34:53.112Z,100011.47
2022-12-31T18:37:22.193Z,100019.13
2022-12-31T18:39:50.357Z,100018.13
2022-12-31T18:42:19.478Z,100023.22
2022-12-31T18:44:47.500Z,100032.59
2022-12-31T18:47:16.432Z,100031.72
2022-12-31T18:49:44.797Z,100023.09
2022-12-31T18:52:15.611Z,100034.34
2022-12-31T18:54:43.608Z,100022.25
2022-12-31T18:57:11.706Z,100026.53
2022-12-31T18:59:39.530Z,100016.94
2022-12-31T19:02:15.118Z,100014.19
2022-12-31T19:04:42.765Z,100007.97
2022-12-31T19:07:10.419Z,99995.03
2022-12-31T19:09:48.330Z,99998.41
2022-12-31T19:12:17.768Z,99997.44
2022-12-31T19:14:45.467Z,100002.53
2022-12-31T19:17:13.043Z,100012.75
2022-12-31T19:19:40.664Z,100017.97
2022-12-31T19:22:14.338Z,100020.56
2022-12-31T19:24:43.265Z,100022.28
2022-12-31T19:27:11.269Z,100018.75
2022-12-31T19:29:38.822Z,100010.00
2022-12-31T19:32:06.992Z,100019.50
2022-12-31T19:34:34.645Z,100018.56
2022-12-31T19:37:02.298Z,100010.69
2022-12-31T19:39:29.851Z,100006.31
2022-12-31T19:41:59.799Z,100010.41
2022-12-31T19:44:27.773Z,100006.84
2022-12-31T19:46:55.424Z,99999.84
2022-12-31T19:49:22.946Z,100002.44
2022-12-31T19:51:50.480Z,99997.13
2022-12-31T19:54:18.056Z,100003.03
2022-12-31T19:56:45.588Z,100006.44
2022-12-31T19:59:14.563Z,100005.53
2022-12-31T20:01:42.191Z,100002.16
2022-12-31T20:04:09.829Z,99994.31
2022-12-31T20:06:37.384Z,100004.53
2022-12-31T20:09:05.668Z,100003.53
2022-12-31T20:11:33.315Z,100004.31
2022-12-31T20:14:00.975Z,100005.13
2022-12-31T20:16:31.526Z,100012.78
2022-12-31T20:18:59.214Z,100017.06
2022-12-31T20:21:28.884Z,100025.69
2022-12-31T20:23:57.107Z,100022.22
2022-12-31T20:26:25.999Z,100036.47
2022-12-31T20:28:54.143Z,100042.22
2022-12-31T20:31:25.599Z,100047.53
2022-12-31T20:33:55.421Z,100044.78
2022-12-31T20:36:24.074Z,100047.06
2022-12-31T20:38:51.726Z,100053.84
2022-12-31T20:41:21.477Z,100042.31
2022-12-31T20:43:49.616Z,100048.13
2022-12-31T20:46:19.859Z,100051.56
2022-12-31T20:48:48.722Z,100045.13
2022-12-31T20:51:18.890Z,100046.66
2022-12-31T20:53:48.391Z,100051.69
2022-12-31T20:56:17.233Z,100047.25
2022-12-31T20:58:45.682Z,100056.84
2022-12-31T21:01:13.959Z,100049.66
2022-12-31T21:04:14.393Z,100046.22
2022-12-31T21:06:33.762Z,100043.88
2022-12-31T21:09:02.822Z,100049.13
2022-12-31T21:11:48.185Z,100040.50
2022-12-31T21:14:16.009Z,100044.75
2022-12-31T21:16:43.608Z,100048.91
2022-12-31T21:19:11.196Z,100045.34
2022-12-31T21:21:40.123Z,100048.69
2022-12-31T21:24:08.113Z,100052.03
2022-12-31T21:26:35.878Z,100052.03
2022-12-31T21:29:03.502Z,100046.88
2022-12-31T21:31:31.298Z,100054.69
2022-12-31T21:33:58.927Z,100056.53
2022-12-31T21:36:26.546Z,100052.28
2022-12-31T21:38:55.438Z,100056.56
2022-12-31T21:41:40.756Z,100053.84
2022-12-31T21:44:08.313Z,100070.00
2022-12-31T21:46:36.127Z,100060.53
2022-12-31T21:49:04.056Z,100068.50
2022-12-31T21:51:31.739Z,100066.72
2022-12-31T21:54:00.656Z,100064.50
2022-12-31T21:56:27.314Z,100069.88
2022-12-31T21:59:15.365Z,100071.44
2022-12-31T22:02:00.933Z,100076.56
2022-12-31T22:05:00.886Z,100079.25
2022-12-31T22:07:16.197Z,100083.44
2022-12-31T22:09:45.140Z,100077.56
2022-12-31T22:12:12.768Z,100073.53
2022-12-31T22:15:14.465Z,100083.75
2022-12-31T22:17:28.582Z,100071.88
2022-12-31T22:22:43.756Z,100089.34
2022-12-31T22:25:12.685Z,100084.19
2022-12-31T22:27:40.340Z,100085.91
2022-12-31T22:30:09.132Z,100082.44
2022-12-31T22:32:36.705Z,100090.00
2022-12-31T22:35:04.591Z,100091.88
2022-12-31T22:37:57.106Z,100105.34
2022-12-31T22:40:21.489Z,100100.84
2022-12-31T22:42:49.126Z,100106.72
2022-12-31T22:45:16.882Z,100107.38
2022-12-31T22:47:44.420Z,100115.06
2022-12-31T22:50:12.003Z,100113.22
2022-12-31T22:52:39.658Z,100125.16
2022-12-31T22:55:08.597Z,100106.81
2022-12-31T22:57:37.582Z,100115.53
2022-12-31T23:00:09.915Z,100102.66
2022-12-31T23:02:41.738Z,100119.28
2022-12-31T23:05:15.499Z,100120.22
2022-12-31T23:07:44.022Z,100129.56
2022-12-31T23:10:29.300Z,100132.97
2022-12-31T23:13:19.810Z,100128.53
2022-12-31T23:16:04.949Z,100132.69
2022-12-31T23:18:50.144Z,100142.91
2022-12-31T23:21:35.508Z,100146.41
2022-12-31T23:24:04.406Z,100141.09
2022-12-31T23:26:31.937Z,100149.69
2022-12-31T23:29:02.068Z,100142.25
2022-12-31T23:31:30.546Z,100139.91
2022-12-31T23:33:58.419Z,100138.16
2022-12-31T23:36:25.973Z,100132.84
2022-12-31T23:38:54.747Z,100141.16
2022-12-31T23:41:23.746Z,100139.09
2022-12-31T23:43:51.311Z,100131.75
2022-12-31T23:46:20.279Z,100136.75
2022-12-31T23:48:47.937Z,100132.94
2022-12-31T23:51:15.523Z,100140.38
2022-12-31T23:53:43.173Z,100141.81
2022-12-31T23:56:19.293Z,100149.22
2022-12-31T23:58:54.531Z,100141.38
